sensor_id;sensor_type;location;lat;lon;timestamp;pressure;altitude;pressure_sealevel;temperature;humidity
1029;BME280;503;48.120;11.488;2022-11-15T00:02:03;95308.00;;;8.74;63.51
1029;BME280;503;48.120;11.488;2022-11-15T00:04:29;95305.34;;;8.74;63.54
1029;BME280;503;48.120;11.488;2022-11-15T00:06:55;95312.03;;;8.72;63.18
1029;BME280;503;48.120;11.488;2022-11-15T00:09:20;95302.75;;;8.69;63.58
1029;BME280;503;48.120;11.488;2022-11-15T00:11:45;95306.00;;;8.66;63.57
1029;BME280;503;48.120;11.488;2022-11-15T00:14:10;95301.78;;;8.65;64.03
1029;BME280;503;48.120;11.488;2022-11-15T00:16:35;95296.75;;;8.64;63.67
1029;BME280;503;48.120;11.488;2022-11-15T00:19:01;95312.16;;;8.62;63.36
1029;BME280;503;48.120;11.488;2022-11-15T00:21:26;95290.72;;;8.58;63.50
1029;BME280;503;48.120;11.488;2022-11-15T00:23:52;95293.97;;;8.55;63.43
1029;BME280;503;48.120;11.488;2022-11-15T00:26:17;95290.81;;;8.53;63.36
1029;BME280;503;48.120;11.488;2022-11-15T00:28:43;95294.84;;;8.50;63.30
1029;BME280;503;48.120;11.488;2022-11-15T00:31:09;95295.38;;;8.47;63.65
1029;BME280;503;48.120;11.488;2022-11-15T00:33:36;95295.94;;;8.44;63.43
1029;BME280;503;48.120;11.488;2022-11-15T00:36:05;95293.59;;;8.43;63.34
1029;BME280;503;48.120;11.488;2022-11-15T00:38:32;95288.88;;;8.40;63.43
1029;BME280;503;48.120;11.488;2022-11-15T00:40:57;95283.63;;;8.34;63.11
1029;BME280;503;48.120;11.488;2022-11-15T00:43:22;95285.25;;;8.30;63.44
1029;BME280;503;48.120;11.488;2022-11-15T00:45:48;95278.16;;;8.26;63.14
1029;BME280;503;48.120;11.488;2022-11-15T00:48:13;95273.41;;;8.23;63.51
1029;BME280;503;48.120;11.488;2022-11-15T00:50:38;95275.56;;;8.21;63.64
1029;BME280;503;48.120;11.488;2022-11-15T00:53:03;95271.63;;;8.18;63.73
1029;BME280;503;48.120;11.488;2022-11-15T00:55:28;95270.03;;;8.17;63.67
1029;BME280;503;48.120;11.488;2022-11-15T00:57:54;95263.97;;;8.17;63.66
1029;BME280;503;48.120;11.488;2022-11-15T01:00:19;95261.31;;;8.17;63.85
1029;BME280;503;48.120;11.488;2022-11-15T01:02:44;95255.22;;;8.16;63.69
1029;BME280;503;48.120;11.488;2022-11-15T01:05:09;95257.81;;;8.21;63.73
1029;BME280;503;48.120;11.488;2022-11-15T01:07:35;95243.19;;;8.24;63.08
1029;BME280;503;48.120;11.488;2022-11-15T01:10:00;95246.59;;;8.29;63.09
1029;BME280;503;48.120;11.488;2022-11-15T01:12:25;95250.22;;;8.33;62.67
1029;BME280;503;48.120;11.488;2022-11-15T01:14:50;95242.50;;;8.37;62.61
1029;BME280;503;48.120;11.488;2022-11-15T01:17:16;95238.00;;;8.38;62.29
1029;BME280;503;48.120;11.488;2022-11-15T01:19:41;95235.88;;;8.40;62.54
1029;BME280;503;48.120;11.488;2022-11-15T01:22:06;95232.94;;;8.41;62.15
1029;BME280;503;48.120;11.488;2022-11-15T01:24:31;95237.94;;;8.43;61.76
1029;BME280;503;48.120;11.488;2022-11-15T01:26:56;95228.91;;;8.44;62.15
1029;BME280;503;48.120;11.488;2022-11-15T01:29:21;95216.44;;;8.44;61.84
1029;BME280;503;48.120;11.488;2022-11-15T01:31:47;95223.88;;;8.42;61.79
1029;BME280;503;48.120;11.488;2022-11-15T01:34:12;95229.75;;;8.39;61.63
1029;BME280;503;48.120;11.488;2022-11-15T01:36:37;95226.09;;;8.35;61.76
1029;BME280;503;48.120;11.488;2022-11-15T01:39:02;95230.69;;;8.29;62.00
1029;BME280;503;48.120;11.488;2022-11-15T01:41:29;95220.94;;;8.25;61.50
1029;BME280;503;48.120;11.488;2022-11-15T01:43:55;95218.06;;;8.21;61.64
1029;BME280;503;48.120;11.488;2022-11-15T01:48:46;95215.41;;;8.21;62.27
1029;BME280;503;48.120;11.488;2022-11-15T01:51:12;95214.34;;;8.22;61.74
1029;BME280;503;48.120;11.488;2022-11-15T01:53:39;95210.41;;;8.20;61.77
1029;BME280;503;48.120;11.488;2022-11-15T01:56:06;95209.63;;;7.76;63.01
1029;BME280;503;48.120;11.488;2022-11-15T01:58:32;95203.56;;;7.76;63.20
1029;BME280;503;48.120;11.488;2022-11-15T02:00:58;95207.31;;;7.94;63.28
1029;BME280;503;48.120;11.488;2022-11-15T02:03:25;95197.72;;;7.98;62.67
1029;BME280;503;48.120;11.488;2022-11-15T02:05:51;95191.84;;;8.01;62.47
1029;BME280;503;48.120;11.488;2022-11-15T02:08:18;95196.66;;;7.99;62.47
1029;BME280;503;48.120;11.488;2022-11-15T02:10:46;95198.06;;;7.91;61.87
1029;BME280;503;48.120;11.488;2022-11-15T02:13:13;95199.63;;;7.92;62.12
1029;BME280;503;48.120;11.488;2022-11-15T02:15:40;95193.06;;;7.90;62.01
1029;BME280;503;48.120;11.488;2022-11-15T02:26:33;95186.78;;;7.62;62.50
1029;BME280;503;48.120;11.488;2022-11-15T02:29:11;95186.22;;;7.65;62.65
1029;BME280;503;48.120;11.488;2022-11-15T02:31:47;95180.72;;;7.61;62.48
1029;BME280;503;48.120;11.488;2022-11-15T02:34:25;95185.22;;;7.61;62.67
1029;BME280;503;48.120;11.488;2022-11-15T02:39:28;95176.78;;;7.59;62.75
1029;BME280;503;48.120;11.488;2022-11-15T02:42:00;95177.03;;;7.57;62.48
1029;BME280;503;48.120;11.488;2022-11-15T02:44:30;95173.91;;;7.55;62.42
1029;BME280;503;48.120;11.488;2022-11-15T02:46:58;95176.56;;;7.55;62.42
1029;BME280;503;48.120;11.488;2022-11-15T02:49:41;95170.53;;;7.49;63.02
1029;BME280;503;48.120;11.488;2022-11-15T02:52:08;95172.69;;;7.47;62.91
1029;BME280;503;48.120;11.488;2022-11-15T02:54:33;95177.16;;;7.47;62.80
1029;BME280;503;48.120;11.488;2022-11-15T02:57:10;95171.38;;;7.45;62.44
1029;BME280;503;48.120;11.488;2022-11-15T03:02:46;95160.84;;;7.40;62.78
1029;BME280;503;48.120;11.488;2022-11-15T03:05:15;95157.72;;;7.38;62.63
1029;BME280;503;48.120;11.488;2022-11-15T03:08:04;95155.31;;;7.36;62.86
1029;BME280;503;48.120;11.488;2022-11-15T03:10:42;95149.53;;;7.34;62.48
1029;BME280;503;48.120;11.488;2022-11-15T03:13:20;95150.63;;;7.33;62.91
1029;BME280;503;48.120;11.488;2022-11-15T03:15:51;95142.94;;;7.32;63.08
1029;BME280;503;48.120;11.488;2022-11-15T03:18:21;95143.81;;;7.27;63.08
1029;BME280;503;48.120;11.488;2022-11-15T03:20:48;95142.44;;;7.29;63.13
1029;BME280;503;48.120;11.488;2022-11-15T03:23:15;95141.94;;;7.27;63.12
1029;BME280;503;48.120;11.488;2022-11-15T03:25:41;95146.28;;;7.18;62.92
1029;BME280;503;48.120;11.488;2022-11-15T03:28:09;95145.94;;;7.01;63.23
1029;BME280;503;48.120;11.488;2022-11-15T03:30:37;95146.88;;;7.10;63.59
1029;BME280;503;48.120;11.488;2022-11-15T03:33:04;95132.38;;;7.08;63.78
1029;BME280;503;48.120;11.488;2022-11-15T03:35:30;95129.69;;;7.13;63.29
1029;BME280;503;48.120;11.488;2022-11-15T03:37:58;95125.19;;;7.13;63.08
1029;BME280;503;48.120;11.488;2022-11-15T03:40:25;95125.19;;;7.13;62.88
1029;BME280;503;48.120;11.488;2022-11-15T03:45:22;95128.66;;;7.09;63.04
1029;BME280;503;48.120;11.488;2022-11-15T03:47:53;95125.53;;;7.07;63.09
1029;BME280;503;48.120;11.488;2022-11-15T03:50:20;95120.78;;;7.03;63.37
1029;BME280;503;48.120;11.488;2022-11-15T03:52:46;95116.06;;;7.00;63.38
1029;BME280;503;48.120;11.488;2022-11-15T03:55:13;95105.53;;;6.95;62.71
1029;BME280;503;48.120;11.488;2022-11-15T03:57:38;95112.47;;;6.91;62.98
1029;BME280;503;48.120;11.488;2022-11-15T04:00:04;95107.97;;;6.92;62.96
1029;BME280;503;48.120;11.488;2022-11-15T04:02:29;95105.81;;;6.94;62.98
1029;BME280;503;48.120;11.488;2022-11-15T04:04:55;95106.91;;;6.93;63.19
1029;BME280;503;48.120;11.488;2022-11-15T04:07:20;95105.28;;;6.97;63.47
1029;BME280;503;48.120;11.488;2022-11-15T04:09:45;95105.47;;;7.00;63.73
1029;BME280;503;48.120;11.488;2022-11-15T04:12:38;95102.28;;;7.03;63.46
1029;BME280;503;48.120;11.488;2022-11-15T04:15:06;95103.06;;;7.04;62.71
1029;BME280;503;48.120;11.488;2022-11-15T04:17:33;95102.78;;;7.06;63.38
1029;BME280;503;48.120;11.488;2022-11-15T04:19:58;95104.13;;;7.03;62.58
1029;BME280;503;48.120;11.488;2022-11-15T04:22:42;95109.38;;;7.08;63.53
1029;BME280;503;48.120;11.488;2022-11-15T04:25:26;95104.31;;;7.12;62.86
1029;BME280;503;48.120;11.488;2022-11-15T04:27:51;95100.72;;;7.21;63.34
1029;BME280;503;48.120;11.488;2022-11-15T04:30:16;95096.19;;;7.27;63.03
1029;BME280;503;48.120;11.488;2022-11-15T04:32:41;95097.19;;;7.31;62.86
1029;BME280;503;48.120;11.488;2022-11-15T04:35:07;95100.06;;;7.35;62.34
1029;BME280;503;48.120;11.488;2022-11-15T04:37:32;95103.19;;;7.37;62.16
1029;BME280;503;48.120;11.488;2022-11-15T04:39:57;95098.19;;;7.35;62.61
1029;BME280;503;48.120;11.488;2022-11-15T04:42:22;95091.56;;;7.38;61.93
1029;BME280;503;48.120;11.488;2022-11-15T04:44:48;95091.03;;;7.36;62.19
1029;BME280;503;48.120;11.488;2022-11-15T04:47:13;94995.69;;;6.60;62.15
1029;BME280;503;48.120;11.488;2022-11-15T04:49:38;95091.09;;;7.30;62.36
1029;BME280;503;48.120;11.488;2022-11-15T04:52:03;95088.50;;;7.25;62.49
1029;BME280;503;48.120;11.488;2022-11-15T04:54:29;95085.88;;;7.25;62.60
1029;BME280;503;48.120;11.488;2022-11-15T04:56:54;95085.88;;;7.25;61.77
1029;BME280;503;48.120;11.488;2022-11-15T04:59:19;95083.53;;;7.24;61.80
1029;BME280;503;48.120;11.488;2022-11-15T05:01:44;95079.31;;;7.23;61.74
1029;BME280;503;48.120;11.488;2022-11-15T05:04:09;95082.22;;;7.21;62.21
1029;BME280;503;48.120;11.488;2022-11-15T05:06:43;95075.94;;;7.17;62.12
1029;BME280;503;48.120;11.488;2022-11-15T05:09:09;95067.78;;;7.14;62.29
1029;BME280;503;48.120;11.488;2022-11-15T05:11:34;95068.31;;;7.11;61.80
1029;BME280;503;48.120;11.488;2022-11-15T05:13:59;95065.69;;;7.11;62.15
1029;BME280;503;48.120;11.488;2022-11-15T05:16:24;95064.13;;;7.10;62.25
1029;BME280;503;48.120;11.488;2022-11-15T05:18:51;95060.19;;;7.07;62.04
1029;BME280;503;48.120;11.488;2022-11-15T05:21:16;95060.44;;;7.06;62.23
1029;BME280;503;48.120;11.488;2022-11-15T05:23:41;95053.31;;;7.06;61.77
1029;BME280;503;48.120;11.488;2022-11-15T05:26:07;95057.03;;;7.05;61.53
1029;BME280;503;48.120;11.488;2022-11-15T05:28:32;95054.66;;;7.03;62.16
1029;BME280;503;48.120;11.488;2022-11-15T05:31:16;95059.25;;;6.98;62.16
1029;BME280;503;48.120;11.488;2022-11-15T05:33:41;95060.19;;;6.83;63.07
1029;BME280;503;48.120;11.488;2022-11-15T05:36:09;95062.50;;;6.90;62.19
1029;BME280;503;48.120;11.488;2022-11-15T05:38:37;95059.59;;;6.91;62.51
1029;BME280;503;48.120;11.488;2022-11-15T05:41:02;95054.31;;;6.91;61.96
1029;BME280;503;48.120;11.488;2022-11-15T05:43:29;95036.84;;;6.90;61.79
1029;BME280;503;48.120;11.488;2022-11-15T05:45:56;95046.63;;;6.90;62.50
1029;BME280;503;48.120;11.488;2022-11-15T05:48:22;95042.41;;;6.89;62.48
1029;BME280;503;48.120;11.488;2022-11-15T05:50:47;95043.50;;;6.88;62.27
1029;BME280;503;48.120;11.488;2022-11-15T05:53:13;95037.41;;;6.87;62.50
1029;BME280;503;48.120;11.488;2022-11-15T05:55:39;95029.75;;;6.86;62.42
1029;BME280;503;48.120;11.488;2022-11-15T05:58:04;95033.75;;;6.83;62.30
1029;BME280;503;48.120;11.488;2022-11-15T06:00:30;95037.75;;;6.81;62.24
1029;BME280;503;48.120;11.488;2022-11-15T06:02:55;95039.66;;;6.75;62.50
1029;BME280;503;48.120;11.488;2022-11-15T06:05:20;95045.00;;;6.70;61.86
1029;BME280;503;48.120;11.488;2022-11-15T06:07:45;95036.09;;;6.66;61.72
1029;BME280;503;48.120;11.488;2022-11-15T06:10:10;95034.28;;;6.61;62.76
1029;BME280;503;48.120;11.488;2022-11-15T06:12:37;95030.56;;;6.62;62.48
1029;BME280;503;48.120;11.488;2022-11-15T06:15:02;95033.69;;;6.64;62.84
1029;BME280;503;48.120;11.488;2022-11-15T06:17:28;95027.34;;;6.65;62.46
1029;BME280;503;48.120;11.488;2022-11-15T06:19:53;95027.84;;;6.67;62.87
1029;BME280;503;48.120;11.488;2022-11-15T06:22:18;95027.28;;;6.70;62.95
1029;BME280;503;48.120;11.488;2022-11-15T06:24:43;94797.06;;;5.14;62.06
1029;BME280;503;48.120;11.488;2022-11-15T06:27:10;95025.59;;;6.80;62.81
1029;BME280;503;48.120;11.488;2022-11-15T06:29:35;95026.38;;;6.80;62.43
1029;BME280;503;48.120;11.488;2022-11-15T06:32:01;95021.56;;;6.87;62.37
1029;BME280;503;48.120;11.488;2022-11-15T06:34:26;95023.34;;;6.92;62.71
1029;BME280;503;48.120;11.488;2022-11-15T06:36:51;95021.97;;;6.94;62.00
1029;BME280;503;48.120;11.488;2022-11-15T06:39:16;95018.78;;;6.97;62.12
1029;BME280;503;48.120;11.488;2022-11-15T06:41:42;95020.59;;;7.02;61.89
1029;BME280;503;48.120;11.488;2022-11-15T06:44:07;95016.78;;;7.08;61.74
1029;BME280;503;48.120;11.488;2022-11-15T06:46:32;95023.88;;;7.13;62.07
1029;BME280;503;48.120;11.488;2022-11-15T06:48:57;95023.53;;;7.19;62.26
1029;BME280;503;48.120;11.488;2022-11-15T06:51:22;95030.31;;;7.25;61.79
1029;BME280;503;48.120;11.488;2022-11-15T06:53:48;95032.63;;;7.32;61.67
1029;BME280;503;48.120;11.488;2022-11-15T06:56:13;95044.78;;;7.33;60.96
1029;BME280;503;48.120;11.488;2022-11-15T06:58:38;95029.69;;;7.34;61.14
1029;BME280;503;48.120;11.488;2022-11-15T07:01:04;95038.34;;;7.39;61.50
1029;BME280;503;48.120;11.488;2022-11-15T07:03:30;95040.13;;;7.44;60.94
1029;BME280;503;48.120;11.488;2022-11-15T07:05:56;95041.41;;;7.46;61.30
1029;BME280;503;48.120;11.488;2022-11-15T07:08:22;95043.00;;;7.47;61.52
1029;BME280;503;48.120;11.488;2022-11-15T07:10:47;95045.50;;;7.58;61.04
1029;BME280;503;48.120;11.488;2022-11-15T07:13:12;95046.72;;;7.65;61.24
1029;BME280;503;48.120;11.488;2022-11-15T07:15:38;95052.72;;;7.71;60.71
1029;BME280;503;48.120;11.488;2022-11-15T07:18:03;95051.84;;;7.75;60.76
1029;BME280;503;48.120;11.488;2022-11-15T07:20:28;95047.78;;;7.83;60.35
1029;BME280;503;48.120;11.488;2022-11-15T07:23:00;95060.91;;;7.88;60.56
1029;BME280;503;48.120;11.488;2022-11-15T07:25:26;95049.75;;;7.91;60.82
1029;BME280;503;48.120;11.488;2022-11-15T07:27:58;95056.53;;;7.97;60.70
1029;BME280;503;48.120;11.488;2022-11-15T07:30:24;95048.25;;;8.04;60.52
1029;BME280;503;48.120;11.488;2022-11-15T07:33:07;95039.63;;;8.12;60.37
1029;BME280;503;48.120;11.488;2022-11-15T07:35:32;95033.84;;;8.24;60.36
1029;BME280;503;48.120;11.488;2022-11-15T07:37:58;95030.25;;;8.33;60.03
1029;BME280;503;48.120;11.488;2022-11-15T07:40:24;95020.78;;;8.46;59.66
1029;BME280;503;48.120;11.488;2022-11-15T07:42:49;95027.56;;;8.52;59.42
1029;BME280;503;48.120;11.488;2022-11-15T07:45:18;95022.56;;;8.65;59.10
1029;BME280;503;48.120;11.488;2022-11-15T07:47:47;95025.22;;;8.78;58.82
1029;BME280;503;48.120;11.488;2022-11-15T07:50:16;95022.78;;;8.96;58.22
1029;BME280;503;48.120;11.488;2022-11-15T07:52:42;95020.41;;;9.08;57.82
1029;BME280;503;48.120;11.488;2022-11-15T07:55:07;95010.03;;;9.20;58.07
1029;BME280;503;48.120;11.488;2022-11-15T07:57:32;95002.06;;;9.34;57.74
1029;BME280;503;48.120;11.488;2022-11-15T07:59:58;95001.25;;;9.47;57.25
1029;BME280;503;48.120;11.488;2022-11-15T08:02:23;94996.50;;;9.58;57.35
1029;BME280;503;48.120;11.488;2022-11-15T08:04:48;94997.03;;;9.69;56.57
1029;BME280;503;48.120;11.488;2022-11-15T08:07:13;94995.41;;;9.81;56.24
1029;BME280;503;48.120;11.488;2022-11-15T08:09:39;94995.66;;;9.94;56.03
1029;BME280;503;48.120;11.488;2022-11-15T08:12:04;94984.78;;;10.04;56.60
1029;BME280;503;48.120;11.488;2022-11-15T08:14:29;94982.16;;;10.12;55.56
1029;BME280;503;48.120;11.488;2022-11-15T08:16:54;94978.00;;;10.20;55.39
1029;BME280;503;48.120;11.488;2022-11-15T08:19:20;94977.13;;;10.33;55.33
1029;BME280;503;48.120;11.488;2022-11-15T08:21:45;94970.78;;;10.43;54.98
1029;BME280;503;48.120;11.488;2022-11-15T08:24:10;94968.16;;;10.52;55.00
1029;BME280;503;48.120;11.488;2022-11-15T08:26:38;94964.75;;;10.60;54.31
1029;BME280;503;48.120;11.488;2022-11-15T08:29:03;94968.34;;;10.64;53.65
1029;BME280;503;48.120;11.488;2022-11-15T08:31:28;94963.09;;;10.81;54.44
1029;BME280;503;48.120;11.488;2022-11-15T08:33:53;94964.97;;;10.89;53.39
1029;BME280;503;48.120;11.488;2022-11-15T08:36:19;94967.53;;;11.03;53.79
1029;BME280;503;48.120;11.488;2022-11-15T08:38:44;94958.78;;;11.11;53.20
1029;BME280;503;48.120;11.488;2022-11-15T08:41:11;94967.84;;;11.19;52.11
1029;BME280;503;48.120;11.488;2022-11-15T08:43:37;94971.53;;;10.83;52.04
1029;BME280;503;48.120;11.488;2022-11-15T08:46:02;94968.84;;;10.75;52.54
1029;BME280;503;48.120;11.488;2022-11-15T08:48:28;94967.78;;;10.76;52.41
1029;BME280;503;48.120;11.488;2022-11-15T08:50:54;94969.22;;;10.90;51.80
1029;BME280;503;48.120;11.488;2022-11-15T08:53:20;94968.94;;;11.09;51.61
1029;BME280;503;48.120;11.488;2022-11-15T08:55:45;94972.22;;;10.98;52.22
1029;BME280;503;48.120;11.488;2022-11-15T08:58:10;94968.97;;;11.18;51.14
1029;BME280;503;48.120;11.488;2022-11-15T09:00:36;94959.44;;;11.43;51.67
1029;BME280;503;48.120;11.488;2022-11-15T09:03:03;94960.84;;;11.58;50.69
1029;BME280;503;48.120;11.488;2022-11-15T09:05:28;94947.81;;;12.00;50.83
1029;BME280;503;48.120;11.488;2022-11-15T09:07:53;94948.22;;;12.19;50.63
1029;BME280;503;48.120;11.488;2022-11-15T09:10:19;94944.13;;;12.30;49.90
1029;BME280;503;48.120;11.488;2022-11-15T09:12:45;94934.22;;;12.39;49.54
1029;BME280;503;48.120;11.488;2022-11-15T09:15:13;94938.41;;;12.49;49.65
1029;BME280;503;48.120;11.488;2022-11-15T09:17:38;94937.13;;;12.55;49.03
1029;BME280;503;48.120;11.488;2022-11-15T09:20:04;94931.00;;;12.55;51.12
1029;BME280;503;48.120;11.488;2022-11-15T09:22:29;94922.91;;;12.72;50.66
1029;BME280;503;48.120;11.488;2022-11-15T09:24:54;94918.41;;;13.14;50.11
1029;BME280;503;48.120;11.488;2022-11-15T09:27:19;94917.41;;;13.27;49.07
1029;BME280;503;48.120;11.488;2022-11-15T09:29:45;94915.16;;;13.30;47.25
1029;BME280;503;48.120;11.488;2022-11-15T09:32:10;94913.56;;;13.37;47.85
1029;BME280;503;48.120;11.488;2022-11-15T09:34:35;94906.25;;;13.46;46.85
1029;BME280;503;48.120;11.488;2022-11-15T09:37:00;94901.53;;;13.64;45.63
1029;BME280;503;48.120;11.488;2022-11-15T09:39:25;94891.22;;;13.75;45.25
1029;BME280;503;48.120;11.488;2022-11-15T09:44:41;94893.66;;;13.80;44.28
1029;BME280;503;48.120;11.488;2022-11-15T09:49:39;94888.66;;;13.78;44.19
1029;BME280;503;48.120;11.488;2022-11-15T09:52:04;94892.34;;;13.86;43.73
1029;BME280;503;48.120;11.488;2022-11-15T09:54:34;94881.63;;;13.74;43.04
1029;BME280;503;48.120;11.488;2022-11-15T09:57:09;94874.78;;;13.97;44.05
1029;BME280;503;48.120;11.488;2022-11-15T10:04:29;94878.69;;;14.12;43.12
1029;BME280;503;48.120;11.488;2022-11-15T10:07:06;94871.00;;;14.11;42.75
1029;BME280;503;48.120;11.488;2022-11-15T10:09:43;94866.78;;;14.10;42.35
1029;BME280;503;48.120;11.488;2022-11-15T10:12:10;94866.00;;;14.21;42.48
1029;BME280;503;48.120;11.488;2022-11-15T10:14:37;94865.69;;;14.23;42.55
1029;BME280;503;48.120;11.488;2022-11-15T10:24:46;94852.88;;;14.41;41.90
1029;BME280;503;48.120;11.488;2022-11-15T10:27:16;94854.78;;;14.52;41.86
1029;BME280;503;48.120;11.488;2022-11-15T10:29:45;94844.31;;;14.60;42.31
1029;BME280;503;48.120;11.488;2022-11-15T10:32:11;94844.31;;;14.60;41.76
1029;BME280;503;48.120;11.488;2022-11-15T10:34:37;94842.28;;;14.69;41.54
1029;BME280;503;48.120;11.488;2022-11-15T10:37:03;94828.66;;;14.74;41.40
1029;BME280;503;48.120;11.488;2022-11-15T10:39:29;94821.88;;;14.76;41.31
1029;BME280;503;48.120;11.488;2022-11-15T10:41:54;94826.22;;;14.81;40.78
1029;BME280;503;48.120;11.488;2022-11-15T10:46:45;94815.94;;;14.83;40.29
1029;BME280;503;48.120;11.488;2022-11-15T10:49:17;94816.97;;;14.66;40.26
1029;BME280;503;48.120;11.488;2022-11-15T10:51:52;94811.34;;;14.96;40.63
1029;BME280;503;48.120;11.488;2022-11-15T10:54:28;94803.31;;;14.96;39.59
1029;BME280;503;48.120;11.488;2022-11-15T10:56:55;94797.22;;;15.11;39.36
1029;BME280;503;48.120;11.488;2022-11-15T10:59:29;94791.28;;;15.18;39.75
1029;BME280;503;48.120;11.488;2022-11-15T11:01:55;94785.84;;;15.30;40.11
1029;BME280;503;48.120;11.488;2022-11-15T11:04:21;94782.50;;;15.33;39.78
1029;BME280;503;48.120;11.488;2022-11-15T11:06:50;94783.13;;;15.42;40.38
1029;BME280;503;48.120;11.488;2022-11-15T11:09:23;94780.88;;;15.44;39.91
1029;BME280;503;48.120;11.488;2022-11-15T11:11:52;94777.78;;;15.42;39.55
1029;BME280;503;48.120;11.488;2022-11-15T11:14:20;94770.75;;;15.38;40.09
1029;BME280;503;48.120;11.488;2022-11-15T11:16:50;94763.59;;;15.42;39.61
1029;BME280;503;48.120;11.488;2022-11-15T11:21:51;94755.56;;;15.57;39.88
1029;BME280;503;48.120;11.488;2022-11-15T11:24:30;94751.97;;;15.66;39.45
1029;BME280;503;48.120;11.488;2022-11-15T11:34:58;94733.91;;;15.78;38.76
1029;BME280;503;48.120;11.488;2022-11-15T11:42:57;94734.50;;;15.72;37.68
1029;BME280;503;48.120;11.488;2022-11-15T11:47:58;94717.28;;;15.89;37.33
1029;BME280;503;48.120;11.488;2022-11-15T11:50:28;94725.69;;;15.87;37.00
1029;BME280;503;48.120;11.488;2022-11-15T11:55:41;94726.88;;;15.90;37.55
1029;BME280;503;48.120;11.488;2022-11-15T12:00:52;94715.78;;;16.23;37.54
1029;BME280;503;48.120;11.488;2022-11-15T12:03:27;94712.06;;;15.96;37.59
1029;BME280;503;48.120;11.488;2022-11-15T12:05:54;94710.00;;;16.05;37.88
1029;BME280;503;48.120;11.488;2022-11-15T12:08:30;94700.72;;;16.18;37.58
1029;BME280;503;48.120;11.488;2022-11-15T12:11:08;94693.09;;;16.20;37.19
1029;BME280;503;48.120;11.488;2022-11-15T12:13:36;94697.81;;;16.27;37.21
1029;BME280;503;48.120;11.488;2022-11-15T12:18:47;94691.94;;;16.21;37.13
1029;BME280;503;48.120;11.488;2022-11-15T12:21:15;94696.50;;;16.36;37.07
1029;BME280;503;48.120;11.488;2022-11-15T12:23:48;94695.22;;;16.30;37.17
1029;BME280;503;48.120;11.488;2022-11-15T12:26:17;94692.69;;;16.37;36.43
1029;BME280;503;48.120;11.488;2022-11-15T12:28:56;94689.94;;;16.34;36.49
1029;BME280;503;48.120;11.488;2022-11-15T12:31:34;94682.69;;;16.54;36.55
1029;BME280;503;48.120;11.488;2022-11-15T12:36:39;94683.50;;;16.74;36.24
1029;BME280;503;48.120;11.488;2022-11-15T12:39:06;94678.31;;;16.65;36.44
1029;BME280;503;48.120;11.488;2022-11-15T12:41:35;94680.47;;;16.75;36.84
1029;BME280;503;48.120;11.488;2022-11-15T12:44:01;94684.31;;;16.58;36.72
1029;BME280;503;48.120;11.488;2022-11-15T12:57:13;94618.47;;;16.45;36.50
1029;BME280;503;48.120;11.488;2022-11-15T13:02:39;94661.16;;;16.89;36.42
1029;BME280;503;48.120;11.488;2022-11-15T13:17:38;94647.94;;;16.80;36.71
1029;BME280;503;48.120;11.488;2022-11-15T13:22:39;94649.78;;;16.76;36.32
1029;BME280;503;48.120;11.488;2022-11-15T13:28:02;94650.81;;;16.91;36.56
1029;BME280;503;48.120;11.488;2022-11-15T13:30:28;94647.38;;;16.91;36.56
1029;BME280;503;48.120;11.488;2022-11-15T13:32:54;94646.72;;;16.97;36.52
1029;BME280;503;48.120;11.488;2022-11-15T13:35:20;94652.94;;;16.82;36.67
1029;BME280;503;48.120;11.488;2022-11-15T13:37:46;94651.47;;;16.84;36.61
1029;BME280;503;48.120;11.488;2022-11-15T13:40:17;94643.63;;;16.95;36.42
1029;BME280;503;48.120;11.488;2022-11-15T13:42:44;94644.66;;;17.10;36.41
1029;BME280;503;48.120;11.488;2022-11-15T13:45:12;94641.13;;;17.06;36.29
1029;BME280;503;48.120;11.488;2022-11-15T13:47:38;94637.00;;;17.12;36.38
1029;BME280;503;48.120;11.488;2022-11-15T13:50:03;94644.81;;;16.98;36.65
1029;BME280;503;48.120;11.488;2022-11-15T13:52:33;94638.78;;;17.04;36.42
1029;BME280;503;48.120;11.488;2022-11-15T13:55:02;94638.25;;;16.95;36.70
1029;BME280;503;48.120;11.488;2022-11-15T13:57:50;94646.72;;;16.97;36.49
1029;BME280;503;48.120;11.488;2022-11-15T14:03:04;94650.16;;;16.98;36.39
1029;BME280;503;48.120;11.488;2022-11-15T14:05:32;94645.94;;;16.97;36.23
1029;BME280;503;48.120;11.488;2022-11-15T14:07:58;94645.94;;;16.97;36.56
1029;BME280;503;48.120;11.488;2022-11-15T14:10:25;94647.84;;;16.96;36.32
1029;BME280;503;48.120;11.488;2022-11-15T14:12:50;94646.72;;;16.97;36.65
1029;BME280;503;48.120;11.488;2022-11-15T14:17:44;94648.34;;;17.02;36.70
1029;BME280;503;48.120;11.488;2022-11-15T14:23:17;94645.16;;;16.96;36.75
1029;BME280;503;48.120;11.488;2022-11-15T14:25:52;94652.59;;;16.83;36.66
1029;BME280;503;48.120;11.488;2022-11-15T14:30:49;94658.09;;;16.52;37.29
1029;BME280;503;48.120;11.488;2022-11-15T14:33:28;94651.38;;;16.61;37.18
1029;BME280;503;48.120;11.488;2022-11-15T14:35:55;94646.78;;;16.62;37.35
1029;BME280;503;48.120;11.488;2022-11-15T14:38:22;94648.84;;;16.69;37.10
1029;BME280;503;48.120;11.488;2022-11-15T14:40:47;94653.94;;;16.54;37.37
1029;BME280;503;48.120;11.488;2022-11-15T14:43:12;94650.50;;;16.19;37.99
1029;BME280;503;48.120;11.488;2022-11-15T14:45:38;94652.06;;;16.20;37.98
1029;BME280;503;48.120;11.488;2022-11-15T14:48:03;94652.53;;;16.06;38.13
1029;BME280;503;48.120;11.488;2022-11-15T14:50:28;94651.50;;;16.30;37.80
1029;BME280;503;48.120;11.488;2022-11-15T14:52:53;94649.88;;;16.25;37.69
1029;BME280;503;48.120;11.488;2022-11-15T14:55:23;94650.44;;;16.15;37.99
1029;BME280;503;48.120;11.488;2022-11-15T14:57:48;94645.69;;;16.08;38.54
1029;BME280;503;48.120;11.488;2022-11-15T15:00:14;94647.66;;;15.92;38.97
1029;BME280;503;48.120;11.488;2022-11-15T15:02:40;94641.63;;;15.64;39.79
1029;BME280;503;48.120;11.488;2022-11-15T15:05:19;94652.06;;;15.21;45.63
1029;BME280;503;48.120;11.488;2022-11-15T15:07:45;94655.00;;;15.32;46.02
1029;BME280;503;48.120;11.488;2022-11-15T15:10:10;94651.81;;;15.42;44.91
1029;BME280;503;48.120;11.488;2022-11-15T15:12:36;94652.06;;;15.21;46.48
1029;BME280;503;48.120;11.488;2022-11-15T15:15:01;94646.25;;;15.35;45.90
1029;BME280;503;48.120;11.488;2022-11-15T15:17:26;94651.16;;;14.57;50.37
1029;BME280;503;48.120;11.488;2022-11-15T15:19:52;94651.34;;;14.24;51.51